sensor_id;sensor_type;location;lat;lon;timestamp;pressure;altitude;pressure_sealevel;temperature;humidity
17311;BME280;8773;43.300;0.394;2022-12-07T00:01:28;99697.31;;;11.21;69.13
17311;BME280;8773;43.300;0.394;2022-12-07T00:03:58;99691.13;;;11.21;68.70
17311;BME280;8773;43.300;0.394;2022-12-07T00:06:32;99696.16;;;11.24;69.04
17311;BME280;8773;43.300;0.394;2022-12-07T00:09:00;99693.47;;;11.16;69.01
17311;BME280;8773;43.300;0.394;2022-12-07T00:11:30;99697.13;;;11.15;68.86
17311;BME280;8773;43.300;0.394;2022-12-07T00:14:00;99694.13;;;11.10;68.58
17311;BME280;8773;43.300;0.394;2022-12-07T00:16:30;99703.16;;;11.17;69.50
17311;BME280;8773;43.300;0.394;2022-12-07T00:18:59;99689.44;;;11.20;68.99
17311;BME280;8773;43.300;0.394;2022-12-07T00:21:29;99688.13;;;11.24;68.17
17311;BME280;8773;43.300;0.394;2022-12-07T00:23:58;99683.91;;;11.13;68.47
17311;BME280;8773;43.300;0.394;2022-12-07T00:26:28;99688.44;;;11.13;68.57
17311;BME280;8773;43.300;0.394;2022-12-07T00:29:00;99687.41;;;11.05;68.85
17311;BME280;8773;43.300;0.394;2022-12-07T00:31:30;99692.75;;;11.05;68.87
17311;BME280;8773;43.300;0.394;2022-12-07T00:34:00;99686.56;;;11.05;68.67
17311;BME280;8773;43.300;0.394;2022-12-07T00:36:28;99689.94;;;11.07;68.43
17311;BME280;8773;43.300;0.394;2022-12-07T00:38:59;99688.09;;;11.08;68.50
17311;BME280;8773;43.300;0.394;2022-12-07T00:41:28;99684.06;;;11.03;69.35
17311;BME280;8773;43.300;0.394;2022-12-07T00:43:56;99671.72;;;11.11;69.19
17311;BME280;8773;43.300;0.394;2022-12-07T00:46:26;99670.53;;;11.13;68.39
17311;BME280;8773;43.300;0.394;2022-12-07T00:48:54;99674.38;;;11.11;67.98
17311;BME280;8773;43.300;0.394;2022-12-07T00:51:24;99672.03;;;11.08;67.84
17311;BME280;8773;43.300;0.394;2022-12-07T00:53:53;99675.53;;;11.00;68.91
17311;BME280;8773;43.300;0.394;2022-12-07T00:56:23;99674.03;;;11.05;68.42
17311;BME280;8773;43.300;0.394;2022-12-07T00:58:52;99669.38;;;11.08;69.07
17311;BME280;8773;43.300;0.394;2022-12-07T01:01:22;99668.34;;;11.00;69.21
17311;BME280;8773;43.300;0.394;2022-12-07T01:03:52;99663.84;;;11.01;68.54
17311;BME280;8773;43.300;0.394;2022-12-07T01:06:21;99652.28;;;10.92;68.75
17311;BME280;8773;43.300;0.394;2022-12-07T01:08:50;99655.59;;;10.86;69.31
17311;BME280;8773;43.300;0.394;2022-12-07T01:11:21;99657.78;;;10.91;69.03
17311;BME280;8773;43.300;0.394;2022-12-07T01:13:50;99663.97;;;10.91;69.51
17311;BME280;8773;43.300;0.394;2022-12-07T01:16:19;99661.66;;;10.96;68.55
17311;BME280;8773;43.300;0.394;2022-12-07T01:18:49;99675.19;;;10.95;68.77
17311;BME280;8773;43.300;0.394;2022-12-07T01:21:21;99664.31;;;10.88;69.08
17311;BME280;8773;43.300;0.394;2022-12-07T01:23:50;99664.31;;;10.88;68.58
17311;BME280;8773;43.300;0.394;2022-12-07T01:26:19;99662.66;;;10.95;68.84
17311;BME280;8773;43.300;0.394;2022-12-07T01:28:48;99656.47;;;10.95;68.61
17311;BME280;8773;43.300;0.394;2022-12-07T01:31:17;99652.94;;;10.94;68.82
17311;BME280;8773;43.300;0.394;2022-12-07T01:33:47;99655.97;;;10.99;69.15
17311;BME280;8773;43.300;0.394;2022-12-07T01:36:20;99652.28;;;10.92;69.00
17311;BME280;8773;43.300;0.394;2022-12-07T01:38:50;99657.47;;;10.94;68.28
17311;BME280;8773;43.300;0.394;2022-12-07T01:41:20;99655.97;;;10.91;67.72
17311;BME280;8773;43.300;0.394;2022-12-07T01:44:16;99663.31;;;10.81;68.83
17311;BME280;8773;43.300;0.394;2022-12-07T01:46:46;99654.94;;;10.76;69.12
17311;BME280;8773;43.300;0.394;2022-12-07T01:49:31;99654.09;;;10.76;69.41
17311;BME280;8773;43.300;0.394;2022-12-07T01:52:14;99665.63;;;10.76;69.28
17311;BME280;8773;43.300;0.394;2022-12-07T01:54:44;99670.47;;;10.73;68.70
17311;BME280;8773;43.300;0.394;2022-12-07T01:57:15;99663.63;;;10.78;68.83
17311;BME280;8773;43.300;0.394;2022-12-07T01:59:45;99663.25;;;10.65;69.86
17311;BME280;8773;43.300;0.394;2022-12-07T02:02:19;99655.50;;;10.54;68.79
17311;BME280;8773;43.300;0.394;2022-12-07T02:04:49;99664.16;;;10.39;70.25
17311;BME280;8773;43.300;0.394;2022-12-07T02:07:20;99666.13;;;10.29;71.06
17311;BME280;8773;43.300;0.394;2022-12-07T02:09:48;99661.97;;;10.35;70.08
17311;BME280;8773;43.300;0.394;2022-12-07T02:12:17;99664.97;;;10.40;69.62
17311;BME280;8773;43.300;0.394;2022-12-07T02:14:45;99645.78;;;10.36;69.89
17311;BME280;8773;43.300;0.394;2022-12-07T02:17:20;99657.47;;;10.44;69.14
17311;BME280;8773;43.300;0.394;2022-12-07T02:20:17;99667.47;;;10.42;69.12
17311;BME280;8773;43.300;0.394;2022-12-07T02:23:23;99667.16;;;10.36;70.07
17311;BME280;8773;43.300;0.394;2022-12-07T02:26:21;99676.47;;;10.32;69.97
17311;BME280;8773;43.300;0.394;2022-12-07T02:29:09;99670.94;;;10.26;69.62
17311;BME280;8773;43.300;0.394;2022-12-07T02:31:43;99669.78;;;10.28;69.29
17311;BME280;8773;43.300;0.394;2022-12-07T02:34:19;99668.78;;;10.29;69.88
17311;BME280;8773;43.300;0.394;2022-12-07T02:36:54;99660.59;;;10.31;69.66
17311;BME280;8773;43.300;0.394;2022-12-07T02:39:30;99664.47;;;10.36;69.17
17311;BME280;8773;43.300;0.394;2022-12-07T02:42:02;99656.63;;;10.35;68.80
17311;BME280;8773;43.300;0.394;2022-12-07T02:44:37;99653.78;;;10.36;68.99
17311;BME280;8773;43.300;0.394;2022-12-07T02:47:07;99654.13;;;10.33;70.03
17311;BME280;8773;43.300;0.394;2022-12-07T02:49:38;99648.38;;;10.20;70.17
17311;BME280;8773;43.300;0.394;2022-12-07T02:52:06;99646.22;;;10.24;70.71
17311;BME280;8773;43.300;0.394;2022-12-07T02:54:35;99644.06;;;10.27;70.39
17311;BME280;8773;43.300;0.394;2022-12-07T02:57:14;99635.88;;;10.29;70.16
17311;BME280;8773;43.300;0.394;2022-12-07T02:59:56;99644.09;;;10.35;69.54
17311;BME280;8773;43.300;0.394;2022-12-07T03:02:34;99642.44;;;10.43;68.74
17311;BME280;8773;43.300;0.394;2022-12-07T03:05:15;99650.13;;;10.46;69.02
17311;BME280;8773;43.300;0.394;2022-12-07T03:07:58;99648.63;;;10.43;69.25
17311;BME280;8773;43.300;0.394;2022-12-07T03:10:34;99647.06;;;10.24;70.39
17311;BME280;8773;43.300;0.394;2022-12-07T03:13:11;99642.66;;;10.15;70.48
17311;BME280;8773;43.300;0.394;2022-12-07T03:15:45;99645.66;;;10.12;70.51
17311;BME280;8773;43.300;0.394;2022-12-07T03:18:18;99637.88;;;10.27;70.11
17311;BME280;8773;43.300;0.394;2022-12-07T03:20:51;99639.75;;;10.34;69.85
17311;BME280;8773;43.300;0.394;2022-12-07T03:23:23;99640.13;;;10.48;70.51
17311;BME280;8773;43.300;0.394;2022-12-07T03:25:57;99643.53;;;10.58;70.22
17311;BME280;8773;43.300;0.394;2022-12-07T03:28:31;99642.53;;;10.59;68.72
17311;BME280;8773;43.300;0.394;2022-12-07T03:31:05;99646.19;;;10.58;69.00
17311;BME280;8773;43.300;0.394;2022-12-07T03:33:42;99646.19;;;10.58;69.02
17311;BME280;8773;43.300;0.394;2022-12-07T03:36:15;99631.00;;;10.58;69.51
17311;BME280;8773;43.300;0.394;2022-12-07T03:38:48;99638.19;;;10.66;69.25
17311;BME280;8773;43.300;0.394;2022-12-07T03:41:21;99634.69;;;10.65;68.86
17311;BME280;8773;43.300;0.394;2022-12-07T03:43:51;99631.38;;;10.71;69.06
17311;BME280;8773;43.300;0.394;2022-12-07T03:46:28;99621.38;;;10.82;68.46
17311;BME280;8773;43.300;0.394;2022-12-07T03:49:06;99624.19;;;10.88;68.49
17311;BME280;8773;43.300;0.394;2022-12-07T03:51:39;99623.03;;;10.91;69.02
17311;BME280;8773;43.300;0.394;2022-12-07T03:54:11;99619.53;;;10.90;68.25
17311;BME280;8773;43.300;0.394;2022-12-07T03:56:42;99625.72;;;10.91;68.24
17311;BME280;8773;43.300;0.394;2022-12-07T03:59:13;99620.53;;;10.81;68.64
17311;BME280;8773;43.300;0.394;2022-12-07T04:01:44;99582.22;;;10.56;68.72
17311;BME280;8773;43.300;0.394;2022-12-07T04:04:13;99620.69;;;10.88;68.76
17311;BME280;8773;43.300;0.394;2022-12-07T04:06:41;99621.19;;;10.75;69.63
17311;BME280;8773;43.300;0.394;2022-12-07T04:09:09;99619.00;;;10.70;68.89
17311;BME280;8773;43.300;0.394;2022-12-07T04:11:37;99616.34;;;10.79;70.09
17311;BME280;8773;43.300;0.394;2022-12-07T04:14:05;99615.50;;;10.86;69.41
17311;BME280;8773;43.300;0.394;2022-12-07T04:16:51;99609.00;;;10.81;69.10
17311;BME280;8773;43.300;0.394;2022-12-07T04:19:22;99610.16;;;10.94;68.69
17311;BME280;8773;43.300;0.394;2022-12-07T04:21:50;99613.84;;;10.93;68.47
17311;BME280;8773;43.300;0.394;2022-12-07T04:24:19;99616.03;;;11.06;68.50
17311;BME280;8773;43.300;0.394;2022-12-07T04:26:48;99612.34;;;11.07;68.80
17311;BME280;8773;43.300;0.394;2022-12-07T04:29:16;99612.03;;;11.10;68.18
17311;BME280;8773;43.300;0.394;2022-12-07T04:31:45;99617.88;;;11.22;67.65
17311;BME280;8773;43.300;0.394;2022-12-07T04:34:16;99605.34;;;11.14;68.81
17311;BME280;8773;43.300;0.394;2022-12-07T04:36:44;99606.84;;;11.17;67.90
17311;BME280;8773;43.300;0.394;2022-12-07T04:39:20;99613.88;;;11.18;68.36
17311;BME280;8773;43.300;0.394;2022-12-07T04:41:49;99612.38;;;11.23;67.32
17311;BME280;8773;43.300;0.394;2022-12-07T04:44:18;99610.03;;;11.12;68.69
17311;BME280;8773;43.300;0.394;2022-12-07T04:46:47;99612.19;;;11.17;67.96
17311;BME280;8773;43.300;0.394;2022-12-07T04:49:17;99619.88;;;11.20;67.71
17311;BME280;8773;43.300;0.394;2022-12-07T04:51:47;99610.69;;;11.22;68.68
17311;BME280;8773;43.300;0.394;2022-12-07T04:54:15;99617.69;;;11.31;67.32
17311;BME280;8773;43.300;0.394;2022-12-07T04:56:44;99623.38;;;11.36;67.86
17311;BME280;8773;43.300;0.394;2022-12-07T04:59:12;99623.22;;;11.38;67.21
17311;BME280;8773;43.300;0.394;2022-12-07T05:01:41;99621.19;;;11.40;67.19
17311;BME280;8773;43.300;0.394;2022-12-07T05:04:09;99627.22;;;11.42;67.24
17311;BME280;8773;43.300;0.394;2022-12-07T05:06:39;99621.03;;;11.42;66.80
17311;BME280;8773;43.300;0.394;2022-12-07T05:09:07;99618.84;;;11.45;66.75
17311;BME280;8773;43.300;0.394;2022-12-07T05:11:35;99621.53;;;11.37;67.67
17311;BME280;8773;43.300;0.394;2022-12-07T05:14:11;99608.81;;;11.39;66.97
17311;BME280;8773;43.300;0.394;2022-12-07T05:16:40;99613.34;;;11.38;67.56
17311;BME280;8773;43.300;0.394;2022-12-07T05:19:10;99616.69;;;11.41;67.42
17311;BME280;8773;43.300;0.394;2022-12-07T05:21:39;99602.47;;;11.40;67.05
17311;BME280;8773;43.300;0.394;2022-12-07T05:24:11;99608.81;;;11.39;67.67
17311;BME280;8773;43.300;0.394;2022-12-07T05:26:39;99607.16;;;11.38;66.69
17311;BME280;8773;43.300;0.394;2022-12-07T05:29:09;99607.50;;;11.35;67.82
17311;BME280;8773;43.300;0.394;2022-12-07T05:31:38;99601.47;;;11.33;67.24
17311;BME280;8773;43.300;0.394;2022-12-07T05:34:06;99603.97;;;11.26;67.17
17311;BME280;8773;43.300;0.394;2022-12-07T05:36:35;99608.81;;;11.31;67.09
17311;BME280;8773;43.300;0.394;2022-12-07T05:39:05;99600.84;;;11.23;67.08
17311;BME280;8773;43.300;0.394;2022-12-07T05:41:33;99603.50;;;11.23;68.83
17311;BME280;8773;43.300;0.394;2022-12-07T05:44:19;99600.50;;;11.18;68.96
17311;BME280;8773;43.300;0.394;2022-12-07T05:46:48;99605.69;;;11.19;67.49
17311;BME280;8773;43.300;0.394;2022-12-07T05:49:16;99603.50;;;11.23;68.56
17311;BME280;8773;43.300;0.394;2022-12-07T05:51:44;99604.34;;;11.23;67.85
17311;BME280;8773;43.300;0.394;2022-12-07T05:54:13;99602.81;;;11.29;68.41
17311;BME280;8773;43.300;0.394;2022-12-07T05:56:41;99599.16;;;11.22;67.58
17311;BME280;8773;43.300;0.394;2022-12-07T05:59:10;99606.34;;;11.13;68.86
17311;BME280;8773;43.300;0.394;2022-12-07T06:01:51;99601.34;;;11.18;68.86
17311;BME280;8773;43.300;0.394;2022-12-07T06:04:20;99596.78;;;11.27;69.20
17311;BME280;8773;43.300;0.394;2022-12-07T06:06:48;99588.75;;;11.27;68.03
17311;BME280;8773;43.300;0.394;2022-12-07T06:09:19;99591.59;;;11.33;68.50
17311;BME280;8773;43.300;0.394;2022-12-07T06:11:47;99582.41;;;11.36;68.04
17311;BME280;8773;43.300;0.394;2022-12-07T06:14:33;99585.91;;;11.36;67.39
17311;BME280;8773;43.300;0.394;2022-12-07T06:17:01;99581.91;;;11.32;67.48
17311;BME280;8773;43.300;0.394;2022-12-07T06:19:30;99591.63;;;11.25;67.57
17311;BME280;8773;43.300;0.394;2022-12-07T06:21:58;99588.13;;;11.17;67.78
17311;BME280;8773;43.300;0.394;2022-12-07T06:24:28;99574.25;;;11.05;nan
17311;BME280;8773;43.300;0.394;2022-12-07T06:26:56;99583.94;;;11.06;68.82
17311;BME280;8773;43.300;0.394;2022-12-07T06:29:24;99584.28;;;11.03;69.34
17311;BME280;8773;43.300;0.394;2022-12-07T06:31:53;99591.47;;;11.02;68.15
17311;BME280;8773;43.300;0.394;2022-12-07T06:34:22;99586.13;;;11.11;68.48
17311;BME280;8773;43.300;0.394;2022-12-07T06:36:51;99572.56;;;11.04;68.34
17311;BME280;8773;43.300;0.394;2022-12-07T06:39:23;99588.13;;;11.09;68.31
17311;BME280;8773;43.300;0.394;2022-12-07T06:41:53;99577.75;;;10.97;69.26
17311;BME280;8773;43.300;0.394;2022-12-07T06:44:21;99579.91;;;10.94;69.30
17311;BME280;8773;43.300;0.394;2022-12-07T06:46:50;99582.94;;;10.99;69.67
17311;BME280;8773;43.300;0.394;2022-12-07T06:49:38;99586.28;;;11.09;69.17
17311;BME280;8773;43.300;0.394;2022-12-07T06:52:06;99577.41;;;11.17;69.97
17311;BME280;8773;43.300;0.394;2022-12-07T06:54:34;99582.09;;;11.23;69.29
17311;BME280;8773;43.300;0.394;2022-12-07T06:57:04;99585.25;;;11.26;68.56
17311;BME280;8773;43.300;0.394;2022-12-07T06:59:32;99569.56;;;11.23;69.03
17311;BME280;8773;43.300;0.394;2022-12-07T07:02:00;99583.75;;;11.32;69.23
17311;BME280;8773;43.300;0.394;2022-12-07T07:04:28;99587.13;;;11.26;68.39
17311;BME280;8773;43.300;0.394;2022-12-07T07:06:56;99580.44;;;11.22;69.56
17311;BME280;8773;43.300;0.394;2022-12-07T07:09:26;99584.94;;;11.21;68.68
17311;BME280;8773;43.300;0.394;2022-12-07T07:11:54;99583.44;;;11.19;69.85
17311;BME280;8773;43.300;0.394;2022-12-07T07:14:23;99580.94;;;11.09;69.03
17311;BME280;8773;43.300;0.394;2022-12-07T07:16:52;99575.41;;;11.11;69.31
17311;BME280;8773;43.300;0.394;2022-12-07T07:19:20;99577.22;;;11.26;69.27
17311;BME280;8773;43.300;0.394;2022-12-07T07:21:48;99570.34;;;11.40;68.42
17311;BME280;8773;43.300;0.394;2022-12-07T07:24:16;99572.69;;;11.43;69.35
17311;BME280;8773;43.300;0.394;2022-12-07T07:26:44;99558.81;;;11.48;68.95
17311;BME280;8773;43.300;0.394;2022-12-07T07:29:12;99570.34;;;11.56;68.25
17311;BME280;8773;43.300;0.394;2022-12-07T07:31:42;99571.16;;;11.65;68.24
17311;BME280;8773;43.300;0.394;2022-12-07T07:34:10;99575.16;;;11.69;68.48
17311;BME280;8773;43.300;0.394;2022-12-07T07:36:38;99581.66;;;11.75;nan
17311;BME280;8773;43.300;0.394;2022-12-07T07:39:06;99582.31;;;11.77;68.03
17311;BME280;8773;43.300;0.394;2022-12-07T07:41:34;99585.47;;;11.80;67.62
17311;BME280;8773;43.300;0.394;2022-12-07T07:44:02;99586.31;;;11.81;67.85
17311;BME280;8773;43.300;0.394;2022-12-07T07:46:31;99588.16;;;11.80;67.22
17311;BME280;8773;43.300;0.394;2022-12-07T07:49:01;99588.19;;;11.88;67.77
17311;BME280;8773;43.300;0.394;2022-12-07T07:51:29;99584.66;;;11.80;67.82
17311;BME280;8773;43.300;0.394;2022-12-07T07:53:57;99592.34;;;11.75;67.73
17311;BME280;8773;43.300;0.394;2022-12-07T07:56:26;99583.50;;;11.74;67.77
17311;BME280;8773;43.300;0.394;2022-12-07T07:58:54;99602.06;;;11.84;68.29
17311;BME280;8773;43.300;0.394;2022-12-07T08:01:22;99593.69;;;11.87;68.20
17311;BME280;8773;43.300;0.394;2022-12-07T08:03:50;99601.41;;;11.90;67.73
17311;BME280;8773;43.300;0.394;2022-12-07T08:06:20;99603.72;;;11.93;67.40
17311;BME280;8773;43.300;0.394;2022-12-07T08:08:48;99599.03;;;11.95;67.10
17311;BME280;8773;43.300;0.394;2022-12-07T08:11:16;99600.38;;;11.99;67.25
17311;BME280;8773;43.300;0.394;2022-12-07T08:13:45;99591.84;;;11.87;67.98
17311;BME280;8773;43.300;0.394;2022-12-07T08:16:13;99602.56;;;11.95;67.78
17311;BME280;8773;43.300;0.394;2022-12-07T08:18:42;99596.19;;;11.96;67.64
17311;BME280;8773;43.300;0.394;2022-12-07T08:21:12;99591.16;;;12.01;67.44
17311;BME280;8773;43.300;0.394;2022-12-07T08:23:42;99591.47;;;12.07;67.37
17311;BME280;8773;43.300;0.394;2022-12-07T08:26:11;99586.44;;;12.12;66.67
17311;BME280;8773;43.300;0.394;2022-12-07T08:28:40;99596.81;;;12.07;66.91
17311;BME280;8773;43.300;0.394;2022-12-07T08:31:11;99583.09;;;12.10;67.35
17311;BME280;8773;43.300;0.394;2022-12-07T08:33:41;99594.25;;;12.13;66.95
17311;BME280;8773;43.300;0.394;2022-12-07T08:36:11;99597.16;;;12.12;66.94
17311;BME280;8773;43.300;0.394;2022-12-07T08:38:41;99603.72;;;12.01;66.83
17311;BME280;8773;43.300;0.394;2022-12-07T08:41:30;99592.06;;;11.69;68.10
17311;BME280;8773;43.300;0.394;2022-12-07T08:43:59;99597.78;;;11.58;68.39
17311;BME280;8773;43.300;0.394;2022-12-07T08:46:30;99606.59;;;11.75;68.69
17311;BME280;8773;43.300;0.394;2022-12-07T08:49:04;99614.44;;;11.93;68.28
17311;BME280;8773;43.300;0.394;2022-12-07T08:51:33;99612.09;;;11.98;67.79
17311;BME280;8773;43.300;0.394;2022-12-07T08:54:05;99613.75;;;11.99;67.79
17311;BME280;8773;43.300;0.394;2022-12-07T08:56:34;99618.81;;;11.86;67.65
17311;BME280;8773;43.300;0.394;2022-12-07T08:59:03;99615.44;;;11.92;67.60
17311;BME280;8773;43.300;0.394;2022-12-07T09:01:32;99625.13;;;12.01;67.83
17311;BME280;8773;43.300;0.394;2022-12-07T09:04:00;99620.44;;;12.11;67.75
17311;BME280;8773;43.300;0.394;2022-12-07T09:06:28;99622.59;;;12.08;67.40
17311;BME280;8773;43.300;0.394;2022-12-07T09:08:58;99622.03;;;12.20;67.38
17311;BME280;8773;43.300;0.394;2022-12-07T09:11:28;99619.56;;;12.50;66.96
17311;BME280;8773;43.300;0.394;2022-12-07T09:13:56;99616.28;;;12.62;66.81
17311;BME280;8773;43.300;0.394;2022-12-07T09:16:24;99617.69;;;12.81;66.78
17311;BME280;8773;43.300;0.394;2022-12-07T09:18:52;99619.81;;;12.94;65.87
17311;BME280;8773;43.300;0.394;2022-12-07T09:21:20;99624.75;;;13.05;65.70
17311;BME280;8773;43.300;0.394;2022-12-07T09:23:48;99627.22;;;13.15;65.87
17311;BME280;8773;43.300;0.394;2022-12-07T09:26:16;99628.09;;;13.30;65.27
17311;BME280;8773;43.300;0.394;2022-12-07T09:28:45;99629.88;;;13.38;64.82
17311;BME280;8773;43.300;0.394;2022-12-07T09:31:13;99623.97;;;13.42;64.91
17311;BME280;8773;43.300;0.394;2022-12-07T09:33:53;99628.22;;;13.51;64.98
17311;BME280;8773;43.300;0.394;2022-12-07T09:36:22;99623.81;;;13.58;64.93
17311;BME280;8773;43.300;0.394;2022-12-07T09:38:50;99616.69;;;13.65;64.44
17311;BME280;8773;43.300;0.394;2022-12-07T09:41:18;99615.59;;;13.75;63.92
17311;BME280;8773;43.300;0.394;2022-12-07T09:43:48;99621.06;;;13.81;63.74
17311;BME280;8773;43.300;0.394;2022-12-07T09:46:18;99618.09;;;13.91;63.05
17311;BME280;8773;43.300;0.394;2022-12-07T09:48:48;99622.06;;;13.95;62.91
17311;BME280;8773;43.300;0.394;2022-12-07T09:51:19;99629.88;;;13.38;63.63
17311;BME280;8773;43.300;0.394;2022-12-07T09:53:52;99630.44;;;13.48;63.96
17311;BME280;8773;43.300;0.394;2022-12-07T09:56:21;99637.16;;;13.66;63.93
17311;BME280;8773;43.300;0.394;2022-12-07T09:58:59;99630.78;;;13.67;63.54
17311;BME280;8773;43.300;0.394;2022-12-07T10:01:30;99626.66;;;13.57;63.39
17311;BME280;8773;43.300;0.394;2022-12-07T10:04:05;99636.03;;;13.61;63.39
17311;BME280;8773;43.300;0.394;2022-12-07T10:06:37;99628.09;;;13.67;63.59
17311;BME280;8773;43.300;0.394;2022-12-07T10:09:09;99631.72;;;13.75;63.88
17311;BME280;8773;43.300;0.394;2022-12-07T10:12:01;99625.22;;;13.98;63.47
17311;BME280;8773;43.300;0.394;2022-12-07T10:14:32;99631.56;;;14.20;62.81
17311;BME280;8773;43.300;0.394;2022-12-07T10:17:33;99621.81;;;14.34;62.51
17311;BME280;8773;43.300;0.394;2022-12-07T10:20:14;99620.59;;;14.51;61.98
17311;BME280;8773;43.300;0.394;2022-12-07T10:22:54;99624.00;;;14.60;61.79
17311;BME280;8773;43.300;0.394;2022-12-07T10:25:26;99609.78;;;14.66;62.01
17311;BME280;8773;43.300;0.394;2022-12-07T10:27:59;99615.19;;;14.66;61.46
17311;BME280;8773;43.300;0.394;2022-12-07T10:30:29;99613.88;;;14.62;61.48
17311;BME280;8773;43.300;0.394;2022-12-07T10:32:58;99617.41;;;14.62;61.89
17311;BME280;8773;43.300;0.394;2022-12-07T10:35:28;99602.81;;;14.72;61.44
17311;BME280;8773;43.300;0.394;2022-12-07T10:37:57;99610.06;;;14.92;61.67
17311;BME280;8773;43.300;0.394;2022-12-07T10:40:29;99592.78;;;15.01;61.07
17311;BME280;8773;43.300;0.394;2022-12-07T10:43:17;99590.56;;;15.05;60.84
17311;BME280;8773;43.300;0.394;2022-12-07T10:46:13;99587.38;;;15.01;60.96
17311;BME280;8773;43.300;0.394;2022-12-07T10:48:51;99590.44;;;15.13;61.17
17311;BME280;8773;43.300;0.394;2022-12-07T10:51:26;99587.38;;;15.23;60.38
17311;BME280;8773;43.300;0.394;2022-12-07T10:54:11;99569.09;;;14.76;61.36
17311;BME280;8773;43.300;0.394;2022-12-07T10:56:56;99568.34;;;15.03;61.01
17311;BME280;8773;43.300;0.394;2022-12-07T10:59:42;99563.53;;;15.20;60.90
17311;BME280;8773;43.300;0.394;2022-12-07T11:02:25;99558.06;;;15.34;60.12
17311;BME280;8773;43.300;0.394;2022-12-07T11:05:04;99554.22;;;15.44;60.54
17311;BME280;8773;43.300;0.394;2022-12-07T11:07:43;99544.56;;;15.56;60.18
17311;BME280;8773;43.300;0.394;2022-12-07T11:10:26;99546.81;;;15.52;60.13
17311;BME280;8773;43.300;0.394;2022-12-07T11:16:14;99546.09;;;15.72;59.30
17311;BME280;8773;43.300;0.394;2022-12-07T11:18:52;99542.22;;;15.81;58.41
17311;BME280;8773;43.300;0.394;2022-12-07T11:21:27;99539.50;;;15.81;58.17
17311;BME280;8773;43.300;0.394;2022-12-07T11:24:01;99535.31;;;15.72;58.71
17311;BME280;8773;43.300;0.394;2022-12-07T11:26:41;99528.94;;;15.45;59.37
17311;BME280;8773;43.300;0.394;2022-12-07T11:29:40;99530.59;;;15.46;59.43
17311;BME280;8773;43.300;0.394;2022-12-07T11:32:16;99534.53;;;15.43;59.47
17311;BME280;8773;43.300;0.394;2022-12-07T11:34:58;99526.78;;;15.33;59.66
17311;BME280;8773;43.300;0.394;2022-12-07T11:37:34;99518.72;;;15.06;60.15
17311;BME280;8773;43.300;0.394;2022-12-07T11:40:14;99511.75;;;15.18;60.48
17311;BME280;8773;43.300;0.394;2022-12-07T11:42:51;99499.19;;;15.03;60.14
17311;BME280;8773;43.300;0.394;2022-12-07T11:45:24;99507.03;;;14.98;60.66
17311;BME280;8773;43.300;0.394;2022-12-07T11:47:57;99511.28;;;15.08;60.96
17311;BME280;8773;43.300;0.394;2022-12-07T11:50:33;99501.00;;;14.96;61.27
17311;BME280;8773;43.300;0.394;2022-12-07T11:53:04;99496.91;;;15.00;60.81
17311;BME280;8773;43.300;0.394;2022-12-07T11:55:43;99494.47;;;14.84;61.37
17311;BME280;8773;43.300;0.394;2022-12-07T11:58:42;99496.31;;;14.84;61.35
17311;BME280;8773;43.300;0.394;2022-12-07T12:01:22;99494.59;;;14.97;61.19
17311;BME280;8773;43.300;0.394;2022-12-07T12:03:57;99490.19;;;15.11;60.89
17311;BME280;8773;43.300;0.394;2022-12-07T12:06:28;99486.03;;;15.09;60.45
17311;BME280;8773;43.300;0.394;2022-12-07T12:09:02;99488.44;;;15.03;60.66
17311;BME280;8773;43.300;0.394;2022-12-07T12:12:24;99482.38;;;15.23;60.03
17311;BME280;8773;43.300;0.394;2022-12-07T12:15:27;99474.09;;;15.24;59.29
17311;BME280;8773;43.300;0.394;2022-12-07T12:21:02;99472.44;;;15.23;57.65
17311;BME280;8773;43.300;0.394;2022-12-07T12:23:39;99471.22;;;15.26;58.46
17311;BME280;8773;43.300;0.394;2022-12-07T12:26:16;99466.97;;;15.10;58.74
17311;BME280;8773;43.300;0.394;2022-12-07T12:28:52;99451.13;;;15.00;59.18
17311;BME280;8773;43.300;0.394;2022-12-07T12:31:43;99455.38;;;15.10;59.50
17311;BME280;8773;43.300;0.394;2022-12-07T12:34:38;99451.69;;;15.17;58.91
17311;BME280;8773;43.300;0.394;2022-12-07T12:37:44;99454.59;;;15.16;58.86
17311;BME280;8773;43.300;0.394;2022-12-07T12:43:42;99444.88;;;14.93;59.18
17311;BME280;8773;43.300;0.394;2022-12-07T12:46:47;99435.75;;;14.94;58.86
17311;BME280;8773;43.300;0.394;2022-12-07T12:49:43;99432.19;;;15.09;59.20
17311;BME280;8773;43.300;0.394;2022-12-07T13:01:43;99407.22;;;15.76;57.38
17311;BME280;8773;43.300;0.394;2022-12-07T13:04:24;99395.06;;;15.93;56.30
17311;BME280;8773;43.300;0.394;2022-12-07T13:06:53;99397.34;;;15.96;56.33
17311;BME280;8773;43.300;0.394;2022-12-07T13:09:24;99394.41;;;15.84;56.51
17311;BME280;8773;43.300;0.394;2022-12-07T13:12:00;99395.69;;;15.95;56.81
17311;BME280;8773;43.300;0.394;2022-12-07T13:14:53;99384.78;;;16.29;56.17
17311;BME280;8773;43.300;0.394;2022-12-07T13:18:00;99382.91;;;16.30;55.88
17311;BME280;8773;43.300;0.394;2022-12-07T13:20:49;99367.97;;;16.27;55.25
17311;BME280;8773;43.300;0.394;2022-12-07T13:23:20;99361.97;;;16.25;55.61
17311;BME280;8773;43.300;0.394;2022-12-07T13:25:55;99372.13;;;16.37;54.97
17311;BME280;8773;43.300;0.394;2022-12-07T13:28:33;99353.06;;;16.45;54.56
17311;BME280;8773;43.300;0.394;2022-12-07T13:31:14;99360.09;;;16.46;54.20
17311;BME280;8773;43.300;0.394;2022-12-07T13:33:46;99352.19;;;16.64;54.20
17311;BME280;8773;43.300;0.394;2022-12-07T13:36:19;99346.78;;;16.57;54.05
17311;BME280;8773;43.300;0.394;2022-12-07T13:38:53;99348.88;;;16.49;54.29
17311;BME280;8773;43.300;0.394;2022-12-07T13:41:23;99340.78;;;16.62;54.50
17311;BME280;8773;43.300;0.394;2022-12-07T13:43:59;99342.44;;;16.63;54.16
17311;BME280;8773;43.300;0.394;2022-12-07T13:46:35;99330.59;;;16.64;54.36
17311;BME280;8773;43.300;0.394;2022-12-07T13:49:19;99331.03;;;16.67;53.66
17311;BME280;8773;43.300;0.394;2022-12-07T13:51:48;99322.94;;;16.48;53.57
17311;BME280;8773;43.300;0.394;2022-12-07T13:54:17;99338.09;;;16.49;54.57
17311;BME280;8773;43.300;0.394;2022-12-07T13:56:49;99341.81;;;16.61;54.85
17311;BME280;8773;43.300;0.394;2022-12-07T13:59:20;99324.78;;;16.74;53.68
17311;BME280;8773;43.300;0.394;2022-12-07T14:01:49;99329.97;;;16.55;53.92